createdAt,value
2022-11-19T00:00:58.197Z,5.22
2022-11-19T00:03:35.477Z,6.22
2022-11-19T00:06:07.128Z,10.93
2022-11-19T00:08:37.815Z,6.88
2022-11-19T00:11:10.077Z,7.00
2022-11-19T00:13:38.542Z,6.70
2022-11-19T00:16:10.493Z,10.02
2022-11-19T00:18:43.469Z,6.38
2022-11-19T00:21:15.915Z,6.50
2022-11-19T00:23:46.294Z,5.25
2022-11-19T00:26:17.720Z,5.93
2022-11-19T00:28:48.171Z,7.03
2022-11-19T00:31:19.042Z,4.78
2022-11-19T00:33:54.429Z,5.18
2022-11-19T00:36:25.341Z,9.13
2022-11-19T00:38:55.627Z,7.40
2022-11-19T00:41:25.993Z,6.32
2022-11-19T00:43:56.265Z,5.93
2022-11-19T00:46:28.578Z,4.13
2022-11-19T00:49:02.333Z,6.57
2022-11-19T00:51:33.732Z,4.68
2022-11-19T00:54:04.051Z,5.50
2022-11-19T00:56:34.423Z,5.43
2022-11-19T00:59:04.717Z,5.80
2022-11-19T01:01:35.170Z,5.60
2022-11-19T01:04:08.817Z,6.03
2022-11-19T01:06:39.134Z,7.00
2022-11-19T01:09:09.554Z,6.50
2022-11-19T01:11:40.555Z,6.40
2022-11-19T01:14:11.167Z,5.77
2022-11-19T01:16:42.280Z,7.13
2022-11-19T01:19:16.628Z,5.73
2022-11-19T01:21:47.297Z,8.20
2022-11-19T01:24:17.620Z,6.10
2022-11-19T01:26:47.980Z,6.87
2022-11-19T01:29:18.578Z,6.23
2022-11-19T01:31:49.074Z,6.60
2022-11-19T01:34:21.948Z,6.85
2022-11-19T01:36:55.091Z,7.57
2022-11-19T01:39:25.483Z,8.57
2022-11-19T01:41:55.804Z,9.23
2022-11-19T01:44:59.035Z,7.82
2022-11-19T01:47:29.337Z,5.07
2022-11-19T01:50:03.073Z,6.80
2022-11-19T01:52:33.723Z,8.50
2022-11-19T01:55:04.714Z,9.53
2022-11-19T01:57:35.393Z,5.67
2022-11-19T02:00:05.917Z,6.00
2022-11-19T02:02:37.395Z,7.03
2022-11-19T02:05:10.932Z,8.90
2022-11-19T02:07:46.068Z,8.50
2022-11-19T02:10:16.779Z,9.90
2022-11-19T02:12:51.598Z,10.67
2022-11-19T02:15:34.312Z,9.50
2022-11-19T02:18:10.210Z,12.17
2022-11-19T02:20:56.209Z,11.47
2022-11-19T02:23:45.735Z,10.53
2022-11-19T02:26:45.667Z,9.97
2022-11-19T02:29:29.059Z,12.10
2022-11-19T02:32:04.642Z,12.20
2022-11-19T02:34:43.196Z,9.17
2022-11-19T02:37:19.577Z,9.30
2022-11-19T02:39:53.618Z,10.77
2022-11-19T02:42:26.855Z,15.23
2022-11-19T02:45:03.925Z,11.60
2022-11-19T02:47:41.380Z,10.40
2022-11-19T02:50:16.100Z,9.47
2022-11-19T02:52:48.069Z,11.50
2022-11-19T02:55:20.374Z,11.97
2022-11-19T02:57:52.920Z,10.30
2022-11-19T03:00:35.971Z,11.00
2022-11-19T03:03:27.186Z,10.73
2022-11-19T03:06:01.872Z,10.83
2022-11-19T03:08:32.292Z,10.10
2022-11-19T03:11:10.865Z,10.57
2022-11-19T03:14:06.084Z,8.57
2022-11-19T03:16:44.642Z,9.03
2022-11-19T03:19:29.379Z,10.23
2022-11-19T03:24:35.432Z,8.73
2022-11-19T03:27:11.098Z,8.00
2022-11-19T03:29:45.626Z,10.53
2022-11-19T03:34:53.749Z,8.43
2022-11-19T03:37:26.956Z,10.57
2022-11-19T03:40:02.031Z,9.30
2022-11-19T03:42:33.369Z,9.97
2022-11-19T03:45:07.016Z,9.77
2022-11-19T03:47:38.849Z,10.25
2022-11-19T03:50:28.423Z,9.57
2022-11-19T03:53:04.131Z,10.53
2022-11-19T03:55:40.776Z,12.53
2022-11-19T03:58:13.495Z,10.13
2022-11-19T04:00:43.783Z,9.33
2022-11-19T04:03:14.052Z,10.53
2022-11-19T04:05:46.782Z,11.17
2022-11-19T04:08:17.071Z,7.13
2022-11-19T04:10:47.317Z,9.13
2022-11-19T04:13:17.613Z,8.18
2022-11-19T04:15:47.917Z,9.33
2022-11-19T04:18:18.319Z,7.60
2022-11-19T04:20:51.233Z,7.13
2022-11-19T04:23:21.565Z,8.33
2022-11-19T04:25:51.938Z,8.60
2022-11-19T04:28:22.262Z,7.63
2022-11-19T04:30:52.636Z,7.70
2022-11-19T04:33:22.934Z,9.70
2022-11-19T04:35:55.555Z,9.83
2022-11-19T04:38:25.856Z,9.57
2022-11-19T04:40:56.156Z,9.67
2022-11-19T04:43:26.415Z,7.50
2022-11-19T04:45:56.678Z,8.97
2022-11-19T04:48:26.947Z,8.83
2022-11-19T04:50:59.612Z,7.50
2022-11-19T04:53:30.085Z,9.13
2022-11-19T04:56:00.522Z,8.10
2022-11-19T04:58:30.834Z,6.97
2022-11-19T05:01:01.184Z,11.93
2022-11-19T05:03:31.269Z,9.27
2022-11-19T05:06:04.154Z,8.07
2022-11-19T05:08:34.670Z,9.23
2022-11-19T05:11:04.966Z,10.30
2022-11-19T05:13:35.228Z,10.13
2022-11-19T05:16:05.661Z,10.07
2022-11-19T05:18:35.946Z,12.77
2022-11-19T05:21:08.620Z,8.30
2022-11-19T05:23:38.938Z,12.00
2022-11-19T05:26:09.307Z,10.77
2022-11-19T05:28:40.203Z,11.33
2022-11-19T05:31:10.772Z,12.87
2022-11-19T05:33:41.147Z,10.50
2022-11-19T05:36:13.882Z,13.40
2022-11-19T05:38:44.139Z,12.90
2022-11-19T05:41:14.448Z,11.90
2022-11-19T05:43:44.702Z,12.70
2022-11-19T05:46:14.980Z,15.37
2022-11-19T05:48:45.228Z,13.30
2022-11-19T05:51:19.354Z,14.53
2022-11-19T05:53:49.505Z,14.45
2022-11-19T05:56:19.886Z,12.77
2022-11-19T05:58:50.179Z,16.17
2022-11-19T06:01:27.912Z,17.37
2022-11-19T06:03:58.413Z,15.03
2022-11-19T06:06:31.174Z,11.97
2022-11-19T06:09:01.503Z,16.97
2022-11-19T06:11:44.272Z,20.30
2022-11-19T06:14:14.335Z,13.57
2022-11-19T06:16:44.561Z,16.07
2022-11-19T06:19:15.081Z,17.77
2022-11-19T06:21:47.842Z,15.40
2022-11-19T06:24:18.135Z,17.90
2022-11-19T06:26:48.560Z,13.63
2022-11-19T06:29:20.044Z,15.37
2022-11-19T06:31:50.481Z,17.73
2022-11-19T06:34:20.894Z,16.83
2022-11-19T06:36:53.486Z,16.43
2022-11-19T06:39:23.857Z,17.70
2022-11-19T06:41:54.285Z,15.47
2022-11-19T06:44:24.735Z,16.13
2022-11-19T06:46:55.118Z,18.27
2022-11-19T06:49:26.029Z,18.37
2022-11-19T06:51:58.767Z,17.77
2022-11-19T06:54:29.061Z,16.37
2022-11-19T06:56:59.299Z,18.70
2022-11-19T06:59:29.593Z,17.33
2022-11-19T07:01:59.919Z,18.23
2022-11-19T07:04:30.241Z,20.43
2022-11-19T07:07:03.009Z,19.03
2022-11-19T07:09:33.363Z,20.35
2022-11-19T07:12:03.652Z,18.27
2022-11-19T07:14:33.919Z,19.63
2022-11-19T07:17:05.109Z,22.07
2022-11-19T07:19:35.382Z,17.70
2022-11-19T07:22:07.994Z,19.80
2022-11-19T07:24:38.488Z,17.10
2022-11-19T07:27:08.770Z,16.13
2022-11-19T07:29:39.017Z,16.73
2022-11-19T07:32:09.299Z,16.10
2022-11-19T07:34:39.662Z,17.43
2022-11-19T07:37:12.318Z,16.07
2022-11-19T07:39:42.571Z,18.33
2022-11-19T07:42:25.253Z,16.03
2022-11-19T07:44:55.990Z,13.77
2022-11-19T07:47:26.282Z,17.23
2022-11-19T07:49:56.611Z,14.87
2022-11-19T07:52:29.244Z,17.97
2022-11-19T07:54:59.619Z,18.70
2022-11-19T07:57:30.489Z,18.10
2022-11-19T08:00:01.078Z,16.73
2022-11-19T08:02:31.348Z,17.43
2022-11-19T08:05:01.651Z,15.93
2022-11-19T08:07:34.278Z,18.10
2022-11-19T08:10:06.806Z,18.67
2022-11-19T08:12:37.153Z,17.67
2022-11-19T08:15:07.888Z,16.60
2022-11-19T08:17:50.608Z,19.70
2022-11-19T08:20:20.862Z,18.37
2022-11-19T08:22:54.515Z,15.80
2022-11-19T08:25:24.798Z,16.33
2022-11-19T08:27:55.148Z,20.63
2022-11-19T08:30:25.495Z,19.50
2022-11-19T08:32:56.036Z,16.67
2022-11-19T08:35:26.363Z,14.50
2022-11-19T08:37:59.077Z,15.70
2022-11-19T08:40:29.422Z,18.40
2022-11-19T08:43:00.006Z,16.67
2022-11-19T08:45:32.030Z,16.70
2022-11-19T08:48:03.562Z,14.90
2022-11-19T08:50:34.441Z,14.87
2022-11-19T08:53:08.246Z,15.17
2022-11-19T08:55:38.572Z,13.80
2022-11-19T08:58:10.844Z,19.57
2022-11-19T09:00:41.209Z,17.40
2022-11-19T09:03:11.588Z,16.80
2022-11-19T09:05:42.189Z,18.57
2022-11-19T09:08:14.831Z,18.77
2022-11-19T09:10:45.114Z,20.03
2022-11-19T09:13:15.139Z,17.10
2022-11-19T09:15:45.400Z,15.73
2022-11-19T09:18:15.672Z,15.73
2022-11-19T09:20:46.118Z,18.47
2022-11-19T09:23:18.697Z,20.63
2022-11-19T09:25:48.943Z,19.00
2022-11-19T09:28:19.214Z,18.67
2022-11-19T09:30:57.811Z,15.13
2022-11-19T09:33:28.361Z,16.20
2022-11-19T09:35:58.621Z,17.10
2022-11-19T09:38:31.655Z,15.90
2022-11-19T09:41:15.413Z,17.33
2022-11-19T09:43:51.954Z,18.63
2022-11-19T09:46:29.894Z,19.10
2022-11-19T12:01:20.779Z,19.87
2022-11-19T12:06:33.504Z,18.43
2022-11-19T12:09:08.411Z,21.83
2022-11-19T12:11:59.599Z,18.07
2022-11-19T12:14:41.090Z,16.77
2022-11-19T12:17:28.387Z,17.67
2022-11-19T12:20:20.877Z,21.40
2022-11-19T12:23:09.816Z,16.97
2022-11-19T12:25:44.008Z,21.70
2022-11-19T12:28:41.165Z,18.33
2022-11-19T12:31:29.900Z,21.17
2022-11-19T12:34:27.370Z,21.73
2022-11-19T12:37:03.532Z,16.53
2022-11-19T12:39:44.651Z,19.70
2022-11-19T12:42:35.267Z,18.47
2022-11-19T12:45:15.653Z,18.70
2022-11-19T12:48:02.245Z,19.27
2022-11-19T12:50:45.823Z,20.37
2022-11-19T12:53:39.133Z,22.50
2022-11-19T12:56:20.399Z,22.37
2022-11-19T12:58:58.897Z,20.00
2022-11-19T13:01:33.580Z,20.43
2022-11-19T13:04:08.108Z,17.03
2022-11-19T13:09:20.517Z,16.53
2022-11-19T13:11:56.093Z,19.00
2022-11-19T13:14:35.250Z,19.70
2022-11-19T13:17:08.456Z,18.70
2022-11-19T13:19:41.021Z,21.87
2022-11-19T13:22:16.617Z,18.90
2022-11-19T13:24:50.062Z,20.20
2022-11-19T13:27:24.370Z,18.27
2022-11-19T13:29:57.755Z,20.15
2022-11-19T13:32:34.144Z,15.57
2022-11-19T13:35:16.309Z,18.13
2022-11-19T13:37:58.858Z,18.63
2022-11-19T13:40:33.615Z,19.07
2022-11-19T13:43:31.538Z,18.07
2022-11-19T13:46:19.271Z,19.37
2022-11-19T13:48:56.792Z,15.93
2022-11-19T13:51:35.197Z,18.70
2022-11-19T13:54:10.627Z,18.57
2022-11-19T13:56:48.905Z,17.27
2022-11-19T13:59:29.546Z,17.97
2022-11-19T14:02:27.158Z,19.33
2022-11-19T14:05:34.145Z,15.97
2022-11-19T14:08:26.786Z,16.23
2022-11-19T14:11:16.592Z,15.63
2022-11-19T14:14:37.350Z,19.50
2022-11-19T14:17:30.100Z,15.47
2022-11-19T14:20:13.269Z,15.57
2022-11-19T14:22:57.894Z,14.93
2022-11-19T14:25:56.238Z,16.35
2022-11-19T14:28:49.040Z,14.87
2022-11-19T14:31:20.702Z,16.00
2022-11-19T14:34:04.254Z,13.30
2022-11-19T14:36:46.403Z,16.27
2022-11-19T14:39:21.115Z,12.87
2022-11-19T14:42:14.993Z,15.23
2022-11-19T14:44:48.095Z,19.03
2022-11-19T14:47:37.653Z,13.83
2022-11-19T14:50:11.709Z,13.10
2022-11-19T14:52:54.643Z,14.13
2022-11-19T14:55:29.026Z,15.23
2022-11-19T15:00:37.941Z,12.40
2022-11-19T15:03:15.036Z,14.10
2022-11-19T15:05:47.564Z,14.37
2022-11-19T15:08:51.825Z,13.97
2022-11-19T15:11:22.863Z,11.33
2022-11-19T15:15:00.161Z,11.53
2022-11-19T15:17:35.411Z,11.13
2022-11-19T15:20:26.813Z,17.80
2022-11-19T15:23:08.331Z,14.13
2022-11-19T15:25:48.396Z,12.60
2022-11-19T15:28:28.818Z,13.00
2022-11-19T15:31:26.755Z,15.67
2022-11-19T15:34:49.178Z,13.40
2022-11-19T15:37:30.552Z,16.88
2022-11-19T15:40:01.158Z,19.33
2022-11-19T15:42:35.717Z,14.93
2022-11-19T15:47:45.128Z,17.17
2022-11-19T15:50:20.613Z,12.00
2022-11-19T15:53:04.061Z,12.43
2022-11-19T15:55:35.736Z,13.80
2022-11-19T15:58:13.671Z,29.23
2022-11-19T16:00:48.366Z,21.37
2022-11-19T16:03:19.383Z,17.40
2022-11-19T16:06:01.712Z,14.23
2022-11-19T16:08:35.187Z,14.80
2022-11-19T16:11:20.577Z,18.23
2022-11-19T16:14:07.971Z,20.63
2022-11-19T16:16:51.641Z,14.93
2022-11-19T16:19:22.301Z,15.33
2022-11-19T16:21:56.674Z,18.93
2022-11-19T16:24:42.831Z,10.68
2022-11-19T16:27:15.144Z,17.73
2022-11-19T16:29:46.653Z,22.70
2022-11-19T16:32:19.754Z,20.53
2022-11-19T16:34:50.557Z,17.10
2022-11-19T16:37:23.337Z,14.53
2022-11-19T16:39:56.457Z,15.50
2022-11-19T16:42:27.432Z,16.60
2022-11-19T16:44:59.270Z,20.10
2022-11-19T16:47:33.296Z,18.07
2022-11-19T16:50:05.696Z,16.83
2022-11-19T16:52:40.148Z,18.00
2022-11-19T16:58:06.241Z,22.47
2022-11-19T17:00:38.283Z,16.67
2022-11-19T17:03:21.236Z,21.93
2022-11-19T17:05:53.562Z,23.43
2022-11-19T17:08:26.134Z,26.70
2022-11-19T17:11:41.797Z,28.90
2022-11-19T17:14:22.613Z,22.58
2022-11-19T17:16:54.417Z,18.23
2022-11-19T17:19:29.506Z,19.23
2022-11-19T17:22:02.414Z,17.27
2022-11-19T17:24:37.051Z,24.87
2022-11-19T17:27:10.899Z,17.77
2022-11-19T17:29:40.963Z,18.35
2022-11-19T17:32:13.443Z,12.53
2022-11-19T17:34:49.211Z,14.03
2022-11-19T17:37:19.445Z,12.73
2022-11-19T17:39:49.734Z,16.97
2022-11-19T17:42:34.803Z,26.90
2022-11-19T17:45:10.609Z,18.57
2022-11-19T17:47:41.378Z,23.00
2022-11-19T17:50:11.809Z,17.03
2022-11-19T17:52:42.125Z,15.37
2022-11-19T17:55:18.919Z,15.03
2022-11-19T17:57:51.586Z,14.87
2022-11-19T18:00:21.977Z,14.07
2022-11-19T18:02:52.301Z,14.30
2022-11-19T18:05:25.851Z,11.07
2022-11-19T18:07:56.376Z,12.10
2022-11-19T18:10:26.678Z,16.27
2022-11-19T18:13:21.656Z,18.50
2022-11-19T18:15:52.008Z,13.85
2022-11-19T18:18:22.678Z,18.30
2022-11-19T18:20:58.957Z,13.27
2022-11-19T18:23:32.140Z,14.73
2022-11-19T18:26:02.390Z,25.00
2022-11-19T18:28:36.168Z,16.73
2022-11-19T18:31:06.265Z,16.70
2022-11-19T18:33:38.008Z,12.77
2022-11-19T18:36:08.726Z,13.00
2022-11-19T18:38:39.034Z,14.27
2022-11-19T18:41:09.285Z,12.77
2022-11-19T18:43:54.649Z,13.90
2022-11-19T18:46:24.997Z,14.53
2022-11-19T18:48:56.417Z,15.63
2022-11-19T18:51:27.335Z,15.47
2022-11-19T18:53:57.698Z,14.57
2022-11-19T18:56:27.992Z,17.03
2022-11-19T18:59:04.671Z,16.07
2022-11-19T19:01:35.409Z,14.53
2022-11-19T19:04:06.059Z,15.23
2022-11-19T19:06:36.475Z,13.87
2022-11-19T19:09:07.022Z,22.77
2022-11-19T19:11:49.733Z,22.60
2022-11-19T19:14:22.603Z,20.53
2022-11-19T19:16:53.773Z,16.20
2022-11-19T19:19:24.275Z,13.37
2022-11-19T19:21:54.606Z,20.27
2022-11-19T19:24:25.258Z,24.80
2022-11-19T19:26:55.618Z,20.17
2022-11-19T19:29:28.512Z,20.30
2022-11-19T19:31:58.871Z,18.87
2022-11-19T19:34:29.122Z,17.67
2022-11-19T19:36:59.885Z,17.87
2022-11-19T19:39:30.235Z,18.53
2022-11-19T19:42:00.534Z,14.57
2022-11-19T19:44:33.131Z,17.70
2022-11-19T19:47:04.951Z,26.07
2022-11-19T19:49:38.836Z,19.50
2022-11-19T19:52:09.361Z,19.05
2022-11-19T19:54:40.888Z,16.10
2022-11-19T19:57:11.598Z,19.97
2022-11-19T19:59:44.516Z,22.83
2022-11-19T20:02:14.844Z,35.90
2022-11-19T20:04:45.492Z,31.17
2022-11-19T20:07:16.065Z,25.07
2022-11-19T20:09:46.474Z,27.00
2022-11-19T20:12:16.906Z,22.90
2022-11-19T20:14:50.049Z,19.33
2022-11-19T20:17:20.387Z,22.23
2022-11-19T20:19:50.716Z,19.27
2022-11-19T20:22:21.077Z,20.27
2022-11-19T20:24:51.384Z,16.73
2022-11-19T20:27:21.724Z,19.87
2022-11-19T20:29:54.552Z,19.10
2022-11-19T20:32:24.938Z,16.83
2022-11-19T20:34:56.523Z,21.43
2022-11-19T20:37:26.896Z,14.57
2022-11-19T20:39:57.181Z,20.17
2022-11-19T20:42:39.903Z,19.43
2022-11-19T20:45:13.045Z,16.83
2022-11-19T20:47:43.291Z,25.33
2022-11-19T20:50:13.903Z,17.87
2022-11-19T20:52:44.218Z,21.57
2022-11-19T20:55:14.486Z,22.53
2022-11-19T20:57:44.801Z,17.93
2022-11-19T21:00:19.560Z,19.00
2022-11-19T21:02:49.828Z,19.60
2022-11-19T21:05:20.283Z,17.77
2022-11-19T21:07:50.613Z,21.47
2022-11-19T21:10:20.742Z,22.67
2022-11-19T21:13:03.715Z,23.00
2022-11-19T21:15:38.508Z,19.47
2022-11-19T21:18:08.903Z,25.00
2022-11-19T21:20:39.260Z,26.87
2022-11-19T21:23:09.618Z,17.27
2022-11-19T21:25:40.024Z,20.13
2022-11-19T21:28:10.465Z,19.73
2022-11-19T21:30:43.154Z,21.33
2022-11-19T21:33:13.644Z,23.23
2022-11-19T21:35:43.928Z,18.37
2022-11-19T21:38:14.174Z,22.03
2022-11-19T21:40:44.714Z,19.13
2022-11-19T21:43:14.954Z,20.87
2022-11-19T21:45:49.010Z,24.47
2022-11-19T21:48:19.582Z,19.33
2022-11-19T21:50:50.444Z,22.37
2022-11-19T21:53:21.146Z,20.73
2022-11-19T21:55:52.038Z,26.97
2022-11-19T21:58:22.319Z,30.53
2022-11-19T22:01:00.507Z,24.77
2022-11-19T22:03:32.441Z,22.03
2022-11-19T22:06:03.158Z,23.67
2022-11-19T22:08:33.613Z,23.37
2022-11-19T22:11:24.151Z,22.10
2022-11-19T22:13:54.547Z,24.50
2022-11-19T22:16:27.447Z,24.60
2022-11-19T22:18:57.782Z,28.97
2022-11-19T22:21:29.154Z,23.10
2022-11-19T22:23:59.589Z,19.57
2022-11-19T22:26:30.092Z,22.03
2022-11-19T22:29:00.419Z,20.37
2022-11-19T22:31:33.383Z,22.33
2022-11-19T22:34:03.669Z,17.67
2022-11-19T22:36:34.616Z,19.10
2022-11-19T22:39:05.043Z,20.77
2022-11-19T22:41:35.403Z,17.13
2022-11-19T22:44:05.695Z,17.37
2022-11-19T22:46:38.569Z,23.00
2022-11-19T22:49:09.007Z,20.13
2022-11-19T22:51:39.451Z,22.17
2022-11-19T22:54:11.651Z,20.53
2022-11-19T22:56:41.922Z,21.13
2022-11-19T22:59:12.180Z,20.03
2022-11-19T23:01:45.050Z,19.13
2022-11-19T23:04:16.915Z,20.97
2022-11-19T23:06:47.315Z,20.47
2022-11-19T23:09:17.813Z,23.90
2022-11-19T23:12:00.661Z,19.23
2022-11-19T23:14:31.213Z,23.00
2022-11-19T23:17:04.203Z,17.87
2022-11-19T23:19:34.540Z,22.43
2022-11-19T23:22:04.854Z,17.80
2022-11-19T23:24:35.202Z,19.87
2022-11-19T23:27:05.554Z,20.87
2022-11-19T23:29:36.923Z,17.73
2022-11-19T23:32:09.833Z,21.07
2022-11-19T23:34:40.191Z,23.37
2022-11-19T23:37:10.441Z,16.80
2022-11-19T23:39:40.979Z,17.47
2022-11-19T23:42:11.359Z,21.10
2022-11-19T23:44:41.663Z,26.73
2022-11-19T23:47:14.526Z,20.73
2022-11-19T23:49:44.861Z,21.77
2022-11-19T23:52:15.426Z,25.57
2022-11-19T23:54:45.727Z,24.37
2022-11-19T23:57:16.080Z,24.57
2022-11-19T23:59:46.443Z,19.80
